Time;durP1;ratioP1;P1;durP2;ratioP2;P2;SDS_P1;SDS_P2;PMS_P1;PMS_P2;Temp;Humidity;BMP_temperature;BMP_pressure;BME280_temperature;BME280_humidity;BME280_pressure;Samples;Min_cycle;Max_cycle;Signal;HPM_P1;HPM_P2
2021/12/29 00:02:19;;;;;;;31.50;16.10;;;;;;;-2.66;72.26;99137.89;126441;1311;98089;-77
2021/12/29 00:05:25;;;;;;;29.30;14.20;;;;;;;-2.70;72.30;99143.35;126312;1312;99198;-78
2021/12/29 00:08:31;;;;;;;22.40;11.60;;;;;;;-2.77;72.07;99146.57;126281;1312;98031;-81
2021/12/29 00:11:40;;;;;;;24.70;11.80;;;;;;;-2.83;72.36;99149.74;126388;1311;99129;-78
2021/12/29 00:14:45;;;;;;;19.60;10.80;;;;;;;-2.88;72.37;99147.82;126307;1312;98019;-77
2021/12/29 00:17:50;;;;;;;24.40;12.20;;;;;;;-2.94;72.21;99142.41;126403;1314;99101;-76
2021/12/29 00:20:56;;;;;;;22.60;10.70;;;;;;;-3.01;72.15;99144.42;126392;1311;98048;-78
2021/12/29 00:24:03;;;;;;;22.80;12.10;;;;;;;-3.11;72.29;99145.21;126289;1311;99318;-80
2021/12/29 00:27:10;;;;;;;22.20;11.20;;;;;;;-3.18;72.07;99144.02;126458;1315;98843;-77
2021/12/29 00:30:17;;;;;;;21.30;10.50;;;;;;;-3.16;72.37;99140.64;126434;1311;99150;-78
2021/12/29 00:33:34;;;;;;;24.30;11.50;;;;;;;-3.14;72.40;99133.72;126229;1312;99238;-77
2021/12/29 00:37:06;;;;;;;18.40;10.30;;;;;;;-3.17;72.31;99133.70;126215;1312;99194;-78
2021/12/29 00:40:31;;;;;;;21.30;11.60;;;;;;;-3.21;71.88;99127.36;126424;1311;98140;-77
2021/12/29 00:43:55;;;;;;;20.50;10.80;;;;;;;-3.25;71.77;99129.20;126461;1314;98127;-78
2021/12/29 00:47:19;;;;;;;23.40;12.10;;;;;;;-3.31;72.17;99133.54;126388;1311;98035;-79
2021/12/29 00:50:25;;;;;;;22.20;11.20;;;;;;;-3.37;72.17;99142.94;126276;1311;99223;-77
2021/12/29 00:53:31;;;;;;;25.60;12.20;;;;;;;-3.45;72.26;99141.34;126394;1312;98031;-77
2021/12/29 00:56:37;;;;;;;25.20;11.20;;;;;;;-3.52;72.26;99140.73;126477;1312;98494;-77
2021/12/29 00:59:42;;;;;;;22.30;10.90;;;;;;;-3.55;72.29;99145.73;126435;1311;98016;-77
2021/12/29 01:02:49;;;;;;;23.20;11.20;;;;;;;-3.55;72.45;99150.96;126398;1311;98060;-76
2021/12/29 01:05:54;;;;;;;20.90;10.30;;;;;;;-3.47;72.25;99151.72;126512;1311;98293;-77
2021/12/29 01:09:00;;;;;;;26.60;10.90;;;;;;;-3.37;72.43;99151.96;126453;1313;98032;-76
2021/12/29 01:12:08;;;;;;;22.00;10.80;;;;;;;-3.30;72.33;99148.27;126466;1311;98704;-77
2021/12/29 01:15:16;;;;;;;23.10;11.30;;;;;;;-3.23;72.32;99153.91;126516;1311;99200;-76
2021/12/29 01:18:22;;;;;;;21.80;10.90;;;;;;;-3.15;72.31;99154.34;126461;1311;98428;-76
2021/12/29 01:21:28;;;;;;;22.50;11.30;;;;;;;-3.13;72.30;99157.01;126076;1311;98165;-77
2021/12/29 01:24:33;;;;;;;25.10;11.60;;;;;;;-3.14;72.42;99154.95;126445;1311;98430;-76
2021/12/29 01:27:39;;;;;;;20.70;10.80;;;;;;;-3.19;72.22;99146.17;126465;1315;99248;-76
2021/12/29 01:30:45;;;;;;;20.30;11.40;;;;;;;-3.19;72.56;99139.95;126477;1311;98392;-78
2021/12/29 01:33:50;;;;;;;20.80;10.20;;;;;;;-3.21;72.25;99138.67;126455;1312;98138;-79
2021/12/29 01:36:56;;;;;;;20.80;10.50;;;;;;;-3.19;72.27;99136.48;126463;1311;98140;-78
2021/12/29 01:40:02;;;;;;;22.70;12.40;;;;;;;-3.17;72.41;99134.45;126318;1314;98850;-81
2021/12/29 01:43:09;;;;;;;30.80;13.00;;;;;;;-3.16;72.22;99135.39;126445;1313;98087;-81
2021/12/29 01:46:14;;;;;;;24.90;12.50;;;;;;;-3.16;72.38;99135.24;126448;1312;99110;-76
2021/12/29 01:49:20;;;;;;;22.60;11.30;;;;;;;-3.16;72.52;99133.83;126296;1312;98149;-82
2021/12/29 01:52:29;;;;;;;22.00;10.80;;;;;;;-3.08;72.50;99128.88;126351;1314;98404;-80
2021/12/29 01:55:35;;;;;;;26.20;11.90;;;;;;;-2.98;72.76;99130.51;126409;1315;98114;-79
2021/12/29 01:58:41;;;;;;;26.40;13.30;;;;;;;-2.87;72.72;99123.18;126423;1311;99258;-80
2021/12/29 02:01:46;;;;;;;24.10;11.70;;;;;;;-2.78;72.37;99122.81;126441;1312;99241;-80
2021/12/29 02:04:52;;;;;;;28.60;15.00;;;;;;;-2.75;72.51;99119.31;126496;1311;98108;-81
2021/12/29 02:07:58;;;;;;;21.20;11.80;;;;;;;-2.72;72.55;99112.35;126202;1311;99312;-71
2021/12/29 02:11:04;;;;;;;26.50;13.40;;;;;;;-2.71;72.32;99112.65;126182;1311;99217;-73
2021/12/29 02:14:10;;;;;;;24.60;12.30;;;;;;;-2.72;72.64;99119.48;126508;1315;99109;-73
2021/12/29 02:17:16;;;;;;;23.50;12.00;;;;;;;-2.77;72.54;99116.11;126167;1312;189777;-76
2021/12/29 02:20:21;;;;;;;27.00;14.10;;;;;;;-2.80;72.63;99116.14;126265;1314;98063;-76
2021/12/29 02:23:33;;;;;;;24.70;12.30;;;;;;;-2.83;72.61;99115.98;126316;1314;99208;-77
2021/12/29 02:26:41;;;;;;;25.90;13.90;;;;;;;-2.86;72.70;99112.18;126259;1311;98680;-76
2021/12/29 02:29:47;;;;;;;32.30;15.30;;;;;;;-2.93;72.83;99122.67;126314;1311;98134;-78
2021/12/29 02:32:55;;;;;;;25.80;12.10;;;;;;;-2.94;72.76;99126.58;126380;1312;98367;-78
2021/12/29 02:36:02;;;;;;;33.50;15.00;;;;;;;-2.89;72.79;99123.84;126361;1312;98044;-77
2021/12/29 02:39:07;;;;;;;28.20;13.20;;;;;;;-2.79;72.82;99124.05;126316;1311;98057;-77
2021/12/29 02:42:14;;;;;;;24.70;12.00;;;;;;;-2.69;72.94;99124.83;126483;1312;98037;-77
2021/12/29 02:45:23;;;;;;;27.10;12.00;;;;;;;-2.59;72.69;99118.66;126626;1312;99088;-78
2021/12/29 02:48:36;;;;;;;26.20;11.80;;;;;;;-2.50;72.64;99118.95;126511;1311;98031;-77
2021/12/29 02:51:42;;;;;;;24.40;12.00;;;;;;;-2.45;72.69;99122.59;126375;1311;99098;-76
2021/12/29 02:54:47;;;;;;;30.00;14.30;;;;;;;-2.42;72.54;99123.09;126196;1311;98462;-76
2021/12/29 02:57:52;;;;;;;22.10;11.90;;;;;;;-2.43;72.60;99118.45;126443;1311;98010;-77
2021/12/29 03:00:59;;;;;;;31.80;15.30;;;;;;;-2.45;72.73;99121.05;126480;1311;98699;-77
2021/12/29 03:04:07;;;;;;;22.30;11.90;;;;;;;-2.47;72.66;99130.58;126470;1312;99094;-77
2021/12/29 03:07:12;;;;;;;27.10;13.10;;;;;;;-2.51;72.71;99123.00;126372;1311;99081;-76
2021/12/29 03:10:18;;;;;;;22.00;12.10;;;;;;;-2.53;72.82;99126.44;126200;1311;98015;-76
2021/12/29 03:13:26;;;;;;;23.40;11.80;;;;;;;-2.55;72.86;99127.98;126261;1311;98736;-76
2021/12/29 03:16:33;;;;;;;24.40;11.70;;;;;;;-2.57;72.66;99125.83;126182;1311;99230;-76
2021/12/29 03:19:39;;;;;;;24.40;12.20;;;;;;;-2.55;72.99;99126.95;126211;1311;99325;-76
2021/12/29 03:22:44;;;;;;;24.40;12.70;;;;;;;-2.53;72.97;99124.23;126196;1311;98054;-71
2021/12/29 03:25:51;;;;;;;22.30;11.80;;;;;;;-2.49;72.91;99122.90;126259;1311;98565;-73
2021/12/29 03:28:57;;;;;;;24.90;11.80;;;;;;;-2.42;72.98;99117.90;126174;1311;98202;-75
2021/12/29 03:32:07;;;;;;;21.30;11.40;;;;;;;-2.37;72.84;99119.51;126257;1311;98064;-80
2021/12/29 03:35:13;;;;;;;20.60;10.40;;;;;;;-2.31;72.75;99118.98;126448;1312;98100;-71
2021/12/29 03:38:21;;;;;;;23.10;10.90;;;;;;;-2.28;73.08;99117.88;126324;1311;98361;-72
2021/12/29 03:41:27;;;;;;;22.30;11.40;;;;;;;-2.27;72.87;99118.52;126445;1311;98365;-72
2021/12/29 03:44:32;;;;;;;19.70;11.20;;;;;;;-2.30;72.81;99116.09;126474;1314;98083;-79
2021/12/29 03:47:37;;;;;;;21.10;10.60;;;;;;;-2.31;72.79;99114.23;126480;1311;99242;-72
2021/12/29 03:50:46;;;;;;;23.30;12.00;;;;;;;-2.32;73.01;99114.65;126579;1312;98593;-75
2021/12/29 03:53:52;;;;;;;24.50;11.70;;;;;;;-2.35;73.13;99114.66;126608;1311;98029;-77
2021/12/29 03:57:00;;;;;;;25.20;12.10;;;;;;;-2.39;73.06;99113.69;126523;1311;98121;-77
2021/12/29 04:00:10;;;;;;;31.90;13.60;;;;;;;-2.40;72.85;99117.78;126488;1313;99212;-75
2021/12/29 04:03:16;;;;;;;26.90;12.20;;;;;;;-2.38;73.02;99122.52;126217;1312;99213;-75
2021/12/29 04:06:22;;;;;;;28.60;12.90;;;;;;;-2.33;73.19;99117.89;126127;1311;98434;-75
2021/12/29 04:09:27;;;;;;;29.80;13.70;;;;;;;-2.29;73.07;99114.98;126458;1311;99185;-75
2021/12/29 04:12:33;;;;;;;29.30;13.90;;;;;;;-2.23;73.29;99109.02;126463;1311;98111;-76
2021/12/29 04:15:38;;;;;;;28.30;13.80;;;;;;;-2.21;73.21;99106.77;126494;1311;99100;-75
2021/12/29 04:18:55;;;;;;;28.30;13.90;;;;;;;-2.22;73.28;99103.56;126447;1312;98003;-75
2021/12/29 04:22:01;;;;;;;28.30;13.80;;;;;;;-2.18;73.39;99098.23;126344;1312;98061;-76
2021/12/29 04:25:08;;;;;;;25.60;13.30;;;;;;;-2.17;73.20;99099.39;126399;1312;98007;-73
2021/12/29 04:28:20;;;;;;;25.10;13.00;;;;;;;-2.19;73.16;99103.88;126384;1312;98076;-75
2021/12/29 04:31:25;;;;;;;23.10;12.90;;;;;;;-2.18;73.15;99104.34;126364;1311;99206;-74
2021/12/29 04:34:31;;;;;;;32.30;14.20;;;;;;;-2.20;73.03;99102.38;126445;1311;99204;-74
2021/12/29 04:37:36;;;;;;;28.00;12.50;;;;;;;-2.21;73.24;99108.71;126185;1311;99235;-75
2021/12/29 04:40:43;;;;;;;28.50;12.90;;;;;;;-2.18;73.27;99106.42;126217;1312;98016;-75
2021/12/29 04:43:49;;;;;;;29.30;13.00;;;;;;;-2.10;73.38;99110.25;126311;1312;98789;-75
2021/12/29 04:46:57;;;;;;;24.30;11.50;;;;;;;-2.00;73.49;99111.85;126299;1311;99223;-75
2021/12/29 04:50:03;;;;;;;23.40;11.70;;;;;;;-1.90;73.25;99109.80;126307;1311;98028;-75
2021/12/29 04:53:11;;;;;;;23.50;12.60;;;;;;;-1.82;73.15;99107.05;126368;1311;98079;-74
2021/12/29 04:56:16;;;;;;;26.80;12.90;;;;;;;-1.77;73.32;99103.36;126322;1311;98015;-75
2021/12/29 04:59:22;;;;;;;24.50;12.60;;;;;;;-1.75;73.03;99103.41;126235;1312;98667;-74
2021/12/29 05:02:27;;;;;;;24.20;12.80;;;;;;;-1.76;73.25;99106.08;126313;1311;99247;-75
2021/12/29 05:05:54;;;;;;;23.20;12.20;;;;;;;-1.79;73.17;99112.74;126263;1311;98051;-71
2021/12/29 05:09:00;;;;;;;22.80;12.50;;;;;;;-1.85;73.17;99113.64;126228;1316;98063;-72
2021/12/29 05:12:06;;;;;;;22.70;11.80;;;;;;;-1.89;73.50;99114.44;126227;1311;98684;-72
2021/12/29 05:15:12;;;;;;;28.20;13.20;;;;;;;-1.92;73.52;99122.20;126465;1315;99136;-72
2021/12/29 05:18:18;;;;;;;29.70;14.40;;;;;;;-1.96;73.49;99123.46;126334;1315;98133;-71
2021/12/29 05:21:25;;;;;;;29.80;13.80;;;;;;;-1.94;73.52;99128.40;126386;1311;98773;-71
2021/12/29 05:24:30;;;;;;;39.60;16.50;;;;;;;-1.91;73.60;99132.70;126367;1312;98481;-71
2021/12/29 05:27:36;;;;;;;35.30;15.70;;;;;;;-1.84;73.76;99135.41;126258;1311;99222;-72
2021/12/29 05:30:41;;;;;;;31.30;14.90;;;;;;;-1.75;73.58;99143.70;126225;1312;98124;-72
2021/12/29 05:33:46;;;;;;;27.80;14.20;;;;;;;-1.66;73.46;99147.92;126278;1312;99082;-72
2021/12/29 05:36:52;;;;;;;30.30;16.00;;;;;;;-1.56;73.45;99143.66;126438;1314;98439;-72
2021/12/29 05:39:58;;;;;;;27.30;13.40;;;;;;;-1.53;73.37;99139.45;126342;1312;99209;-71
2021/12/29 05:43:03;;;;;;;50.30;18.80;;;;;;;-1.53;73.27;99143.63;126235;1311;99216;-73
2021/12/29 05:46:09;;;;;;;32.00;15.10;;;;;;;-1.56;73.35;99134.73;126313;1311;98021;-72
2021/12/29 05:49:15;;;;;;;41.80;21.00;;;;;;;-1.60;73.61;99132.38;126393;1312;99223;-72
2021/12/29 05:52:20;;;;;;;34.10;16.60;;;;;;;-1.63;73.60;99135.77;126434;1315;98017;-72
2021/12/29 05:55:26;;;;;;;29.80;15.20;;;;;;;-1.67;73.38;99136.00;126557;1311;98059;-72
2021/12/29 05:58:32;;;;;;;26.30;13.60;;;;;;;-1.71;73.78;99129.80;126829;1311;97986;-71
2021/12/29 06:01:37;;;;;;;31.40;16.10;;;;;;;-1.76;73.58;99133.65;126443;1311;98111;-72
2021/12/29 06:04:42;;;;;;;36.80;18.60;;;;;;;-1.80;73.78;99134.23;126261;1315;98779;-71
2021/12/29 06:07:49;;;;;;;28.20;14.20;;;;;;;-1.82;73.59;99134.73;126653;1311;98028;-72
2021/12/29 06:10:54;;;;;;;27.00;13.00;;;;;;;-1.77;74.04;99137.52;126592;1311;98506;-74
2021/12/29 06:14:00;;;;;;;28.00;14.60;;;;;;;-1.67;73.98;99135.50;126291;1311;99211;-72
2021/12/29 06:17:05;;;;;;;46.50;27.20;;;;;;;-1.66;73.83;99133.30;126515;1311;98040;-72
2021/12/29 06:20:14;;;;;;;28.50;15.10;;;;;;;-1.66;73.84;99138.91;126634;1310;99200;-73
2021/12/29 06:23:20;;;;;;;29.60;16.10;;;;;;;-1.67;73.67;99137.91;126662;1312;99190;-73
2021/12/29 06:26:26;;;;;;;26.30;14.30;;;;;;;-1.65;73.73;99140.05;126631;1311;98031;-72
2021/12/29 06:29:31;;;;;;;24.90;14.10;;;;;;;-1.65;73.94;99150.65;126573;1311;98696;-75
2021/12/29 06:32:37;;;;;;;24.80;13.50;;;;;;;-1.67;73.65;99155.18;126333;1310;98019;-75
2021/12/29 06:35:42;;;;;;;28.70;14.10;;;;;;;-1.70;73.99;99163.05;126465;1318;98380;-71
2021/12/29 06:38:48;;;;;;;32.20;14.30;;;;;;;-1.71;73.96;99163.45;126345;1312;97948;-72
2021/12/29 06:41:53;;;;;;;28.20;13.70;;;;;;;-1.69;74.41;99171.66;126299;1311;98050;-75
2021/12/29 06:44:59;;;;;;;29.00;13.40;;;;;;;-1.62;74.06;99174.05;126428;1312;98028;-74
2021/12/29 06:48:05;;;;;;;25.60;12.80;;;;;;;-1.53;74.28;99177.13;126375;1315;98803;-75
2021/12/29 06:51:10;;;;;;;26.50;13.00;;;;;;;-1.50;74.00;99175.83;126554;1310;98116;-74
2021/12/29 06:54:15;;;;;;;28.20;13.50;;;;;;;-1.44;73.99;99170.02;126610;1312;99094;-76
2021/12/29 06:57:21;;;;;;;26.90;13.90;;;;;;;-1.43;73.93;99171.20;126358;1314;98149;-75
2021/12/29 07:00:26;;;;;;;26.70;14.20;;;;;;;-1.47;74.14;99173.23;126266;1312;98037;-75
2021/12/29 07:03:32;;;;;;;25.60;13.80;;;;;;;-1.51;73.78;99171.73;126407;1312;99217;-75
2021/12/29 07:06:37;;;;;;;28.90;14.40;;;;;;;-1.52;74.15;99172.15;126314;1310;98041;-75
2021/12/29 07:09:43;;;;;;;27.00;14.00;;;;;;;-1.54;74.16;99181.02;126481;1310;99194;-75
2021/12/29 07:12:48;;;;;;;33.90;15.70;;;;;;;-1.55;74.14;99183.20;126460;1311;99105;-75
2021/12/29 07:15:53;;;;;;;31.90;14.90;;;;;;;-1.56;74.15;99187.12;126284;1311;98455;-74
2021/12/29 07:18:59;;;;;;;33.70;14.50;;;;;;;-1.52;74.07;99187.86;126307;1312;98495;-74
2021/12/29 07:22:06;;;;;;;24.20;12.80;;;;;;;-1.44;74.27;99193.93;126243;1312;98153;-74
2021/12/29 07:25:12;;;;;;;26.50;13.70;;;;;;;-1.34;74.02;99190.13;126395;1315;98032;-74
2021/12/29 07:28:18;;;;;;;53.50;25.90;;;;;;;-1.23;73.79;99188.32;126589;1317;99225;-75
2021/12/29 07:31:25;;;;;;;45.50;25.00;;;;;;;-1.17;74.00;99191.75;126646;1312;98012;-74
2021/12/29 07:34:31;;;;;;;31.50;16.50;;;;;;;-1.13;73.73;99193.96;126814;1311;98668;-83
2021/12/29 07:37:36;;;;;;;28.80;16.60;;;;;;;-1.11;73.81;99193.79;126420;1311;99202;-80
2021/12/29 07:40:42;;;;;;;31.50;17.30;;;;;;;-1.09;73.96;99198.55;126326;1309;99190;-73
2021/12/29 07:43:50;;;;;;;31.40;18.00;;;;;;;-1.08;73.89;99201.08;127546;1310;98098;-74
2021/12/29 07:46:58;;;;;;;27.70;17.30;;;;;;;-1.07;73.66;99197.88;126760;1313;98108;-77
2021/12/29 07:50:06;;;;;;;29.50;17.10;;;;;;;-1.06;73.85;99200.12;127200;1309;99207;-78
2021/12/29 07:53:11;;;;;;;34.10;18.30;;;;;;;-1.04;73.69;99205.88;126719;1311;98235;-78
2021/12/29 07:56:17;;;;;;;29.50;16.10;;;;;;;-1.05;73.64;99213.98;126752;1310;98507;-78
2021/12/29 07:59:23;;;;;;;35.00;17.80;;;;;;;-1.11;73.80;99213.68;126829;1311;98168;-74
2021/12/29 08:02:28;;;;;;;28.60;14.30;;;;;;;-1.13;73.88;99215.56;126630;1311;99112;-74
2021/12/29 08:05:34;;;;;;;29.80;15.00;;;;;;;-1.12;73.80;99211.12;126644;1315;99114;-76
2021/12/29 08:08:39;;;;;;;36.70;17.90;;;;;;;-1.03;73.91;99211.20;126527;1310;98015;-80
2021/12/29 08:11:45;;;;;;;56.50;29.70;;;;;;;-0.95;73.89;99210.34;126642;1310;98012;-81
2021/12/29 08:14:51;;;;;;;33.40;17.30;;;;;;;-0.89;73.64;99206.61;126719;1315;99135;-82
2021/12/29 08:17:58;;;;;;;32.90;18.20;;;;;;;-0.84;73.73;99208.37;126748;1310;98124;-79
2021/12/29 08:21:03;;;;;;;31.20;16.30;;;;;;;-0.86;73.58;99210.39;126667;1311;98787;-79
2021/12/29 08:24:09;;;;;;;34.50;18.30;;;;;;;-0.87;73.74;99214.14;126560;1311;98653;-78
2021/12/29 08:27:14;;;;;;;30.70;16.00;;;;;;;-0.88;73.86;99214.56;126881;1312;98797;-81
2021/12/29 08:30:20;;;;;;;31.50;17.10;;;;;;;-0.87;73.68;99220.39;126703;1311;98108;-80
2021/12/29 09:03:40;;;;;;;34.30;20.10;;;;;;;-0.36;73.61;99240.08;122875;1351;648100;-75
2021/12/29 09:06:46;;;;;;;32.40;17.40;;;;;;;-0.27;73.64;99244.73;125581;1322;148277;-76
2021/12/29 09:09:52;;;;;;;48.30;24.30;;;;;;;-0.23;73.69;99244.75;125419;1322;108727;-75
2021/12/29 09:12:58;;;;;;;54.70;25.80;;;;;;;-0.20;73.47;99248.07;125627;1321;108890;-76
2021/12/29 09:16:04;;;;;;;45.90;22.90;;;;;;;-0.19;73.52;99243.63;125624;1322;109041;-75
2021/12/29 09:19:12;;;;;;;37.90;17.70;;;;;;;-0.22;73.55;99237.00;125607;1322;107515;-75
2021/12/29 09:22:18;;;;;;;29.20;16.30;;;;;;;-0.23;73.65;99233.54;125545;1325;108644;-75
2021/12/29 09:25:25;;;;;;;36.30;18.30;;;;;;;-0.17;73.36;99236.33;125444;1320;109642;-75
2021/12/29 09:28:31;;;;;;;33.90;17.30;;;;;;;-0.12;73.34;99238.20;125518;1326;107348;-76
2021/12/29 09:31:36;;;;;;;31.20;15.80;;;;;;;-0.08;73.55;99239.67;125249;1322;108966;-74
2021/12/29 09:34:42;;;;;;;32.40;16.60;;;;;;;-0.06;73.30;99242.50;125630;1322;108824;-76
2021/12/29 09:37:49;;;;;;;28.50;15.60;;;;;;;-0.07;73.43;99236.81;125578;1321;107392;-77
2021/12/29 09:40:54;;;;;;;32.50;16.70;;;;;;;-0.10;73.41;99239.66;125827;1320;108748;-77
2021/12/29 09:44:00;;;;;;;34.90;17.30;;;;;;;-0.11;73.36;99245.46;125756;1318;108823;-76
2021/12/29 09:47:08;;;;;;;34.40;17.80;;;;;;;-0.12;73.41;99241.15;125766;1318;107183;-77
2021/12/29 09:50:16;;;;;;;32.10;17.00;;;;;;;-0.14;73.58;99236.23;125854;1317;108905;-76
2021/12/29 09:53:22;;;;;;;35.90;18.50;;;;;;;-0.12;73.41;99235.55;125805;1318;108781;-76
2021/12/29 09:56:31;;;;;;;33.90;17.60;;;;;;;-0.09;73.44;99242.39;125784;1319;108877;-76
2021/12/29 09:59:36;;;;;;;40.70;19.60;;;;;;;-0.06;73.44;99247.56;125806;1318;109116;-78
2021/12/29 10:02:41;;;;;;;38.40;18.50;;;;;;;-0.03;73.29;99248.36;125769;1319;108805;-76
2021/12/29 10:05:50;;;;;;;33.60;16.50;;;;;;;0.04;73.25;99250.39;125820;1321;108899;-76
2021/12/29 10:08:56;;;;;;;33.80;17.00;;;;;;;0.16;73.30;99247.26;125887;1318;109093;-76
2021/12/29 10:12:10;;;;;;;43.20;22.40;;;;;;;0.24;73.19;99247.50;125829;1318;108949;-77
2021/12/29 10:15:16;;;;;;;69.20;33.70;;;;;;;0.27;73.09;99246.22;125781;1316;107939;-77
2021/12/29 10:18:23;;;;;;;43.60;23.40;;;;;;;0.26;73.26;99245.27;125811;1318;109004;-77
2021/12/29 10:21:29;;;;;;;39.00;20.80;;;;;;;0.30;73.18;99242.17;126480;1312;109017;-76
2021/12/29 10:24:36;;;;;;;38.70;20.40;;;;;;;0.36;73.17;99243.15;126453;1314;108905;-76
2021/12/29 10:27:43;;;;;;;35.10;19.20;;;;;;;0.40;73.12;99248.42;126492;1313;108701;-77
2021/12/29 10:30:58;;;;;;;45.60;24.10;;;;;;;0.44;73.16;99242.37;126511;1316;108726;-77
2021/12/29 10:34:06;;;;;;;78.30;36.80;;;;;;;0.51;73.18;99232.95;126271;1312;108682;-77
2021/12/29 10:37:12;;;;;;;40.50;21.70;;;;;;;0.57;73.02;99237.70;126413;1312;108847;-76
2021/12/29 10:40:30;;;;;;;44.20;24.80;;;;;;;0.55;72.95;99235.05;126495;1314;107005;-77
2021/12/29 10:43:35;;;;;;;41.90;23.00;;;;;;;0.53;72.86;99235.05;126599;1313;108916;-76
2021/12/29 10:46:41;;;;;;;48.00;25.00;;;;;;;0.45;73.06;99237.39;126470;1313;108908;-75
2021/12/29 10:49:55;;;;;;;51.70;26.40;;;;;;;0.49;73.13;99238.67;126428;1312;109273;-77
2021/12/29 10:53:01;;;;;;;37.50;19.50;;;;;;;0.61;73.32;99239.57;126592;1313;108331;-77
2021/12/29 10:56:06;;;;;;;42.70;23.70;;;;;;;0.69;72.96;99239.98;126407;1312;108732;-76
2021/12/29 10:59:19;;;;;;;48.50;24.70;;;;;;;0.75;73.04;99242.54;126476;1313;108862;-77
2021/12/29 11:02:29;;;;;;;55.00;27.60;;;;;;;0.77;72.96;99248.29;126490;1313;108934;-77
2021/12/29 11:05:41;;;;;;;78.10;36.40;;;;;;;0.81;72.96;99255.02;126428;1312;108771;-77
2021/12/29 11:08:52;;;;;;;94.10;40.10;;;;;;;0.79;73.06;99252.17;126437;1316;108833;-77
2021/12/29 11:11:59;;;;;;;78.20;33.50;;;;;;;0.81;73.02;99245.42;126397;1314;108406;-76
2021/12/29 11:15:16;;;;;;;59.30;31.30;;;;;;;0.79;73.00;99245.55;126447;1312;108899;-76
2021/12/29 11:18:22;;;;;;;46.30;26.00;;;;;;;0.76;73.08;99246.46;126480;1314;108741;-76
2021/12/29 11:21:30;;;;;;;51.00;25.40;;;;;;;0.74;73.08;99245.05;126508;1312;108586;-77
2021/12/29 11:24:36;;;;;;;44.30;24.10;;;;;;;0.73;73.23;99249.19;126532;1313;108926;-76
2021/12/29 11:27:42;;;;;;;49.00;25.50;;;;;;;0.73;73.09;99248.27;126550;1312;108790;-76
2021/12/29 11:30:48;;;;;;;48.60;24.00;;;;;;;0.72;73.37;99241.49;126513;1312;107152;-77
2021/12/29 11:33:53;;;;;;;46.00;24.00;;;;;;;0.70;73.33;99238.84;126497;1312;108808;-77
2021/12/29 11:37:09;;;;;;;40.90;20.80;;;;;;;0.70;73.33;99239.02;126547;1312;107514;-77
2021/12/29 11:40:17;;;;;;;49.90;24.20;;;;;;;0.77;73.46;99241.48;126494;1313;108618;-77
2021/12/29 11:43:23;;;;;;;40.00;21.70;;;;;;;0.85;73.44;99243.17;126484;1312;108565;-76
2021/12/29 11:46:28;;;;;;;46.60;23.40;;;;;;;0.90;73.52;99246.98;126257;1313;108931;-75
2021/12/29 11:49:34;;;;;;;43.70;22.70;;;;;;;0.95;73.48;99249.23;126274;1313;106841;-76
2021/12/29 11:52:51;;;;;;;50.40;24.70;;;;;;;0.97;73.56;99243.81;126480;1313;108744;-77
2021/12/29 11:56:01;;;;;;;58.40;29.70;;;;;;;0.98;73.57;99248.97;126496;1313;108893;-76
2021/12/29 11:59:07;;;;;;;48.80;24.40;;;;;;;1.01;73.70;99246.14;126467;1311;108912;-77
2021/12/29 12:02:23;;;;;;;98.30;43.80;;;;;;;1.02;73.69;99255.52;126496;1313;108382;-76
2021/12/29 12:05:40;;;;;;;74.20;32.00;;;;;;;1.00;73.76;99254.44;126486;1312;108822;-77
2021/12/29 12:08:46;;;;;;;46.60;24.00;;;;;;;0.98;73.75;99257.38;126562;1312;108738;-77
2021/12/29 12:11:59;;;;;;;52.80;25.50;;;;;;;0.95;73.73;99258.69;126472;1312;108800;-77
2021/12/29 12:15:08;;;;;;;51.20;24.80;;;;;;;0.92;73.94;99257.88;126494;1314;108886;-76
2021/12/29 12:18:13;;;;;;;40.40;20.70;;;;;;;0.92;73.90;99258.20;126492;1312;108720;-77
2021/12/29 12:21:31;;;;;;;43.30;22.90;;;;;;;0.96;73.82;99255.64;126796;1312;108978;-77
2021/12/29 12:24:38;;;;;;;42.70;22.50;;;;;;;1.01;73.97;99264.02;126459;1315;108888;-77
2021/12/29 12:27:48;;;;;;;47.50;24.50;;;;;;;1.04;73.74;99270.60;126467;1316;108909;-76
2021/12/29 12:31:00;;;;;;;37.90;22.00;;;;;;;1.06;73.93;99271.67;126275;1312;110455;-77
2021/12/29 12:34:11;;;;;;;43.10;22.00;;;;;;;1.07;73.84;99271.42;126519;1312;108776;-77
2021/12/29 12:37:19;;;;;;;42.50;23.00;;;;;;;1.05;73.95;99267.52;126478;1312;109729;-76
2021/12/29 12:40:33;;;;;;;40.70;22.40;;;;;;;1.02;73.92;99269.40;126539;1317;107953;-77
2021/12/29 12:43:51;;;;;;;39.90;22.30;;;;;;;0.97;74.01;99272.92;126489;1312;108637;-76
2021/12/29 12:47:15;;;;;;;42.50;23.80;;;;;;;0.91;74.02;99273.73;126410;1316;108932;-76
2021/12/29 12:50:29;;;;;;;43.80;23.80;;;;;;;0.84;73.92;99265.66;126430;1312;110695;-77
2021/12/29 12:53:37;;;;;;;45.30;24.50;;;;;;;0.80;74.12;99271.56;126476;1312;108725;-76
2021/12/29 12:56:48;;;;;;;46.40;21.90;;;;;;;0.81;74.18;99270.46;126435;1312;108794;-77
2021/12/29 13:00:04;;;;;;;47.70;24.30;;;;;;;0.85;74.26;99272.05;126493;1313;107262;-76
2021/12/29 13:03:10;;;;;;;56.10;28.30;;;;;;;0.91;74.21;99271.41;126407;1312;108912;-76
2021/12/29 13:06:20;;;;;;;56.90;28.90;;;;;;;0.96;74.19;99272.95;126288;1314;108530;-77
2021/12/29 13:09:26;;;;;;;51.70;27.60;;;;;;;0.97;74.06;99271.87;126476;1313;108748;-78
2021/12/29 13:12:36;;;;;;;53.50;27.00;;;;;;;0.95;74.22;99275.14;126400;1313;108752;-77
2021/12/29 13:15:42;;;;;;;48.50;25.30;;;;;;;0.94;74.15;99280.48;126389;1319;108544;-77
2021/12/29 13:18:48;;;;;;;48.10;24.80;;;;;;;0.90;74.22;99284.48;126338;1314;108796;-77
2021/12/29 13:21:59;;;;;;;44.70;24.70;;;;;;;0.85;74.18;99284.32;126426;1313;108504;-76
2021/12/29 13:25:14;;;;;;;47.00;24.80;;;;;;;0.84;74.38;99285.59;126358;1312;108250;-76
2021/12/29 13:28:22;;;;;;;48.50;24.30;;;;;;;0.84;74.37;99288.06;126355;1313;108797;-77
2021/12/29 13:31:27;;;;;;;44.70;23.10;;;;;;;0.89;74.45;99292.77;126578;1314;109253;-75
2021/12/29 13:34:33;;;;;;;48.00;26.00;;;;;;;0.92;74.51;99295.14;126434;1312;108928;-77
2021/12/29 13:37:41;;;;;;;43.80;24.40;;;;;;;0.96;74.55;99299.09;126470;1311;109009;-77
2021/12/29 13:40:49;;;;;;;47.90;25.00;;;;;;;0.99;74.46;99300.09;126440;1312;108822;-76
2021/12/29 13:43:57;;;;;;;46.80;25.50;;;;;;;1.00;74.44;99306.45;126272;1312;107698;-76
2021/12/29 13:47:03;;;;;;;47.20;24.70;;;;;;;1.00;74.45;99311.89;126346;1316;107410;-77
2021/12/29 13:50:15;;;;;;;45.80;24.60;;;;;;;0.98;74.59;99312.73;126466;1312;108614;-77
2021/12/29 13:53:21;;;;;;;46.80;25.30;;;;;;;0.96;74.48;99322.02;126537;1313;108759;-77
2021/12/29 13:56:35;;;;;;;48.30;25.00;;;;;;;0.93;74.62;99324.15;126467;1313;108990;-77
2021/12/29 13:59:40;;;;;;;50.10;26.10;;;;;;;0.89;74.61;99325.31;126536;1313;106491;-75
2021/12/29 14:02:46;;;;;;;53.80;25.60;;;;;;;0.83;74.66;99329.79;126016;1314;108958;-74
2021/12/29 14:05:52;;;;;;;41.40;21.00;;;;;;;0.82;74.84;99329.70;126793;1309;108791;-75
2021/12/29 14:08:58;;;;;;;44.60;23.10;;;;;;;0.88;74.86;99331.39;126530;1312;108852;-77
2021/12/29 14:12:12;;;;;;;45.20;23.90;;;;;;;0.94;74.78;99333.36;126452;1311;109121;-78
2021/12/29 14:15:21;;;;;;;46.00;24.30;;;;;;;0.97;74.76;99341.03;126488;1316;108904;-76
2021/12/29 14:18:28;;;;;;;48.80;25.80;;;;;;;0.96;74.82;99345.77;126581;1315;107973;-74
2021/12/29 14:21:36;;;;;;;47.90;24.60;;;;;;;0.98;74.66;99351.08;126464;1312;106755;-82
2021/12/29 14:24:41;;;;;;;50.10;26.00;;;;;;;0.96;74.75;99353.48;126727;1316;108631;-74
2021/12/29 14:27:53;;;;;;;52.90;27.40;;;;;;;0.94;74.96;99352.95;126355;1312;107900;-76
2021/12/29 14:31:05;;;;;;;55.90;28.50;;;;;;;0.89;74.83;99357.85;126500;1312;108819;-79
2021/12/29 14:34:13;;;;;;;58.30;27.90;;;;;;;0.84;74.90;99358.99;126549;1313;108460;-75
2021/12/29 14:37:18;;;;;;;61.90;28.60;;;;;;;0.78;75.05;99356.04;126542;1312;107433;-74
2021/12/29 14:40:27;;;;;;;51.40;24.80;;;;;;;0.80;75.04;99351.73;126405;1317;108891;-74
2021/12/29 14:43:32;;;;;;;58.30;27.70;;;;;;;0.86;75.17;99356.75;126486;1313;109113;-73